createdAt,value
2022-10-21T19:09:19.263Z,5.72
2022-10-21T19:12:46.810Z,6.85
2022-10-21T19:16:17.071Z,4.70
2022-10-21T19:19:44.628Z,5.10
2022-10-21T19:23:12.220Z,5.80
2022-10-21T19:26:39.759Z,6.27
2022-10-21T19:30:07.264Z,6.15
2022-10-21T19:33:34.796Z,6.53
2022-10-21T19:37:05.099Z,5.80
2022-10-21T19:40:32.659Z,6.13
2022-10-21T19:44:00.230Z,6.33
2022-10-21T19:47:27.702Z,5.37
2022-10-21T19:50:55.259Z,5.07
2022-10-21T19:54:22.723Z,6.32
2022-10-21T19:57:50.233Z,5.88
2022-10-21T20:01:17.797Z,5.00
2022-10-21T20:04:45.289Z,4.23
2022-10-21T20:08:12.890Z,4.95
2022-10-21T20:11:40.481Z,5.63
2022-10-21T20:15:13.778Z,7.15
2022-10-21T20:18:56.202Z,6.97
2022-10-21T20:22:35.262Z,5.97
2022-10-21T20:29:10.736Z,4.88
2022-10-21T20:32:38.180Z,5.80
2022-10-21T20:36:14.667Z,7.88
2022-10-21T20:39:42.173Z,6.20
2022-10-21T20:43:09.652Z,6.27
2022-10-21T20:46:37.358Z,5.25
2022-10-21T20:50:07.644Z,6.85
2022-10-21T20:53:38.284Z,5.30
2022-10-21T20:57:05.808Z,5.60
2022-10-21T21:00:44.807Z,6.03
2022-10-21T21:04:13.944Z,5.05
2022-10-21T21:07:41.820Z,5.32
2022-10-21T21:11:09.531Z,5.18
2022-10-21T21:14:37.091Z,5.50
2022-10-21T21:18:04.595Z,7.57
2022-10-21T21:21:32.127Z,8.02
2022-10-21T21:24:59.622Z,5.70
2022-10-21T21:28:27.133Z,7.13
2022-10-21T21:31:54.691Z,6.65
2022-10-21T21:35:22.143Z,6.60
2022-10-21T21:38:49.672Z,6.18
2022-10-21T21:42:17.113Z,7.70
2022-10-21T21:45:44.592Z,7.47
2022-10-21T21:49:12.064Z,5.85
2022-10-21T21:52:42.687Z,7.45
2022-10-21T21:56:10.389Z,7.63
2022-10-21T21:59:37.845Z,7.63
2022-10-21T22:03:05.323Z,7.13
2022-10-21T22:06:32.795Z,7.82
2022-10-21T22:10:00.229Z,7.65
2022-10-21T22:13:27.693Z,9.63
2022-10-21T22:16:55.157Z,10.27
2022-10-21T22:20:22.593Z,11.38
2022-10-21T22:23:50.062Z,10.30
2022-10-21T22:27:17.525Z,11.77
2022-10-21T22:30:45.053Z,11.52
2022-10-21T22:34:12.527Z,14.33
2022-10-21T22:37:40.205Z,14.05
2022-10-21T22:41:12.292Z,16.95
2022-10-21T22:44:40.237Z,13.38
2022-10-21T22:48:07.705Z,13.13
2022-10-21T22:51:35.732Z,14.20
2022-10-21T22:55:03.183Z,13.13
2022-10-21T22:58:30.645Z,19.65
2022-10-21T23:01:58.085Z,14.73
2022-10-21T23:05:25.548Z,15.07
2022-10-21T23:08:53.059Z,14.18
2022-10-21T23:12:20.542Z,15.38
2022-10-21T23:15:48.070Z,17.38
2022-10-21T23:19:15.548Z,18.10
2022-10-21T23:22:43.249Z,14.38
2022-10-21T23:26:10.810Z,16.40
2022-10-21T23:29:38.311Z,14.85
2022-10-21T23:33:05.810Z,14.77
2022-10-21T23:36:33.320Z,16.58
2022-10-21T23:40:00.789Z,17.27
2022-10-21T23:43:28.269Z,17.38
2022-10-21T23:46:55.720Z,14.80
2022-10-21T23:50:23.194Z,20.40
2022-10-21T23:53:50.699Z,17.20
2022-10-21T23:57:18.205Z,17.13
